createdAt,value
2023-01-11T00:00:25.777Z,89.38
2023-01-11T00:02:59.933Z,88.87
2023-01-11T00:05:26.575Z,88.89
2023-01-11T00:07:53.279Z,87.79
2023-01-11T00:10:20.026Z,86.78
2023-01-11T00:12:47.071Z,86.43
2023-01-11T00:15:13.884Z,85.49
2023-01-11T00:17:41.544Z,85.02
2023-01-11T00:20:10.092Z,85.63
2023-01-11T00:22:36.915Z,84.87
2023-01-11T00:25:03.965Z,85.59
2023-01-11T00:27:30.661Z,87.25
2023-01-11T00:29:57.390Z,86.79
2023-01-11T00:32:24.246Z,87.53
2023-01-11T00:34:50.967Z,86.01
2023-01-11T00:37:17.562Z,85.11
2023-01-11T00:39:44.209Z,84.86
2023-01-11T00:42:32.168Z,84.05
2023-01-11T00:45:17.666Z,84.00
2023-01-11T00:48:01.000Z,84.56
2023-01-11T00:50:30.244Z,83.81
2023-01-11T00:52:57.647Z,83.14
2023-01-11T00:55:24.451Z,83.49
2023-01-11T00:57:51.140Z,83.82
2023-01-11T01:00:19.052Z,83.96
2023-01-11T01:02:46.087Z,83.28
2023-01-11T01:05:12.831Z,84.15
2023-01-11T01:07:39.515Z,83.93
2023-01-11T01:10:08.063Z,82.34
2023-01-11T01:12:53.576Z,83.46
2023-01-11T01:15:20.443Z,83.94
2023-01-11T01:17:47.258Z,85.32
2023-01-11T01:20:14.827Z,84.82
2023-01-11T01:22:41.883Z,85.07
2023-01-11T01:25:08.822Z,83.82
2023-01-11T01:27:35.583Z,83.54
2023-01-11T01:30:02.315Z,84.17
2023-01-11T01:32:29.015Z,83.11
2023-01-11T01:34:55.658Z,81.98
2023-01-11T01:37:22.249Z,82.05
2023-01-11T01:39:48.883Z,81.60
2023-01-11T01:42:16.745Z,81.58
2023-01-11T01:45:04.255Z,82.03
2023-01-11T01:47:38.697Z,82.23
2023-01-11T01:50:12.573Z,81.80
2023-01-11T01:52:39.225Z,81.02
2023-01-11T01:55:08.517Z,81.19
2023-01-11T01:57:35.594Z,80.72
2023-01-11T02:00:05.590Z,81.04
2023-01-11T02:02:32.229Z,81.49
2023-01-11T02:04:58.913Z,81.54
2023-01-11T02:07:28.887Z,81.10
2023-01-11T02:10:10.636Z,81.78
2023-01-11T02:12:40.489Z,82.53
2023-01-11T02:15:08.033Z,83.89
2023-01-11T02:17:34.697Z,84.12
2023-01-11T02:20:08.586Z,83.10
2023-01-11T02:22:47.280Z,84.16
2023-01-11T02:25:32.086Z,84.84
2023-01-11T02:28:01.464Z,84.11
2023-01-11T02:30:46.914Z,83.88
2023-01-11T02:33:23.355Z,85.76
2023-01-11T02:36:13.624Z,86.60
2023-01-11T02:38:46.424Z,86.57
2023-01-11T02:41:59.226Z,87.11
2023-01-11T02:44:46.704Z,87.95
2023-01-11T02:47:24.863Z,90.95
2023-01-11T02:50:03.781Z,89.79
2023-01-11T02:53:01.263Z,88.02
2023-01-11T02:55:31.124Z,90.54
2023-01-11T02:57:58.974Z,89.77
2023-01-11T03:00:25.634Z,88.85
2023-01-11T03:03:08.223Z,90.78
2023-01-11T03:05:35.854Z,89.60
2023-01-11T03:08:05.498Z,90.13
2023-01-11T03:11:02.429Z,89.05
2023-01-11T03:13:39.452Z,89.79
2023-01-11T03:16:14.901Z,87.49
2023-01-11T03:19:06.078Z,89.16
2023-01-11T03:21:58.674Z,88.92
2023-01-11T03:24:33.860Z,87.87
2023-01-11T03:27:06.102Z,88.51
2023-01-11T03:29:49.555Z,87.54
2023-01-11T03:32:16.371Z,86.84
2023-01-11T03:34:55.175Z,86.46
2023-01-11T03:37:50.728Z,84.61
2023-01-11T03:40:22.886Z,83.97
2023-01-11T03:43:10.100Z,83.68
2023-01-11T03:45:47.455Z,85.01
2023-01-11T03:48:20.268Z,84.53
2023-01-11T03:50:46.962Z,84.69
2023-01-11T03:53:13.542Z,85.27
2023-01-11T03:55:41.583Z,85.40
2023-01-11T03:58:09.084Z,85.05
2023-01-11T04:00:36.347Z,84.78
2023-01-11T04:03:03.145Z,84.83
2023-01-11T04:05:29.796Z,84.52
2023-01-11T04:07:56.508Z,83.83
2023-01-11T04:10:23.335Z,82.74
2023-01-11T04:12:50.055Z,83.33
2023-01-11T04:15:16.893Z,83.55
2023-01-11T04:17:43.585Z,83.61
2023-01-11T04:20:10.724Z,84.02
2023-01-11T04:22:37.466Z,83.24
2023-01-11T04:25:04.386Z,83.73
2023-01-11T04:27:30.980Z,84.38
2023-01-11T04:29:57.675Z,83.70
2023-01-11T04:32:24.431Z,84.25
2023-01-11T04:34:51.131Z,83.94
2023-01-11T04:37:17.719Z,85.41
2023-01-11T04:39:44.387Z,84.66
2023-01-11T04:42:21.164Z,85.16
2023-01-11T04:44:49.062Z,85.04
2023-01-11T04:47:20.202Z,84.83
2023-01-11T04:49:47.090Z,84.60
2023-01-11T04:52:15.000Z,84.99
2023-01-11T04:54:41.775Z,85.71
2023-01-11T04:57:10.831Z,85.49
2023-01-11T04:59:37.516Z,86.00
2023-01-11T05:02:04.254Z,85.01
2023-01-11T05:04:31.046Z,84.82
2023-01-11T05:06:57.870Z,84.94
2023-01-11T05:09:24.441Z,86.24
2023-01-11T05:11:51.131Z,86.44
2023-01-11T05:14:17.980Z,84.92
2023-01-11T05:16:44.702Z,85.01
2023-01-11T05:19:11.642Z,85.09
2023-01-11T05:21:40.062Z,84.40
2023-01-11T05:24:08.443Z,84.51
2023-01-11T05:26:36.835Z,84.75
2023-01-11T05:29:05.728Z,85.63
2023-01-11T05:31:34.796Z,85.72
2023-01-11T05:34:01.514Z,86.36
2023-01-11T05:36:28.363Z,85.84
2023-01-11T05:38:55.723Z,85.87
2023-01-11T05:41:23.632Z,86.43
2023-01-11T05:44:09.296Z,85.96
2023-01-11T05:46:37.082Z,85.71
2023-01-11T05:49:03.885Z,85.63
2023-01-11T05:51:30.905Z,86.15
2023-01-11T05:53:57.825Z,86.60
2023-01-11T05:56:24.519Z,85.00
2023-01-11T05:58:51.338Z,84.72
2023-01-11T06:01:18.831Z,85.77
2023-01-11T06:03:45.837Z,87.00
2023-01-11T06:06:13.040Z,86.76
2023-01-11T06:08:39.669Z,86.95
2023-01-11T06:11:06.356Z,86.31
2023-01-11T06:13:33.962Z,86.25
2023-01-11T06:16:19.550Z,86.33
2023-01-11T06:18:48.332Z,86.61
2023-01-11T06:21:15.264Z,85.76
2023-01-11T06:23:44.153Z,86.85
2023-01-11T06:26:15.259Z,86.00
2023-01-11T06:28:42.095Z,86.78
2023-01-11T06:31:08.902Z,86.23
2023-01-11T06:33:36.301Z,86.78
2023-01-11T06:36:08.063Z,86.28
2023-01-11T06:38:35.239Z,86.42
2023-01-11T06:41:02.760Z,87.25
2023-01-11T06:43:29.641Z,86.22
2023-01-11T06:45:56.511Z,86.48
2023-01-11T06:48:23.434Z,87.10
2023-01-11T06:50:50.811Z,86.85
2023-01-11T06:53:17.419Z,86.90
2023-01-11T06:55:44.244Z,86.48
2023-01-11T06:58:10.926Z,85.83
2023-01-11T07:00:37.845Z,85.70
2023-01-11T07:03:05.304Z,85.44
2023-01-11T07:05:35.572Z,86.04
2023-01-11T07:08:02.544Z,85.54
2023-01-11T07:10:29.325Z,86.62
2023-01-11T07:12:55.999Z,86.52
2023-01-11T07:15:22.674Z,85.42
2023-01-11T07:17:54.981Z,86.12
2023-01-11T07:20:22.366Z,85.85
2023-01-11T07:22:49.305Z,86.47
2023-01-11T07:25:15.903Z,85.88
2023-01-11T07:27:42.597Z,85.75
2023-01-11T07:30:09.997Z,85.35
2023-01-11T07:32:36.768Z,85.24
2023-01-11T07:35:03.476Z,84.81
2023-01-11T07:37:32.767Z,85.20
2023-01-11T07:39:59.471Z,85.02
2023-01-11T07:42:44.872Z,85.31
2023-01-11T07:45:11.595Z,85.90
2023-01-11T07:47:38.368Z,85.42
2023-01-11T07:50:05.513Z,85.03
2023-01-11T07:52:32.196Z,85.57
2023-01-11T07:55:02.650Z,85.26
2023-01-11T07:57:30.279Z,85.58
2023-01-11T07:59:56.937Z,86.21
2023-01-11T08:02:23.721Z,84.70
2023-01-11T08:04:50.569Z,85.05
2023-01-11T08:07:17.129Z,84.78
2023-01-11T08:09:43.764Z,84.56
2023-01-11T08:12:28.710Z,83.90
2023-01-11T08:14:55.490Z,82.30
2023-01-11T08:17:22.205Z,82.48
2023-01-11T08:19:48.867Z,82.11
2023-01-11T08:22:15.555Z,81.82
2023-01-11T08:24:42.314Z,79.96
2023-01-11T08:27:09.043Z,79.70
2023-01-11T08:29:35.750Z,79.93
2023-01-11T08:32:02.444Z,80.74
2023-01-11T08:34:29.208Z,77.85
2023-01-11T08:37:01.916Z,77.93
2023-01-11T08:39:31.043Z,77.20
2023-01-11T08:42:01.185Z,77.95
2023-01-11T08:44:35.264Z,76.79
2023-01-11T08:47:02.996Z,78.99
2023-01-11T08:49:30.642Z,78.34
2023-01-11T08:51:57.433Z,77.65
2023-01-11T08:54:25.004Z,77.69
2023-01-11T08:56:51.693Z,78.34
2023-01-11T08:59:19.974Z,79.04
2023-01-11T09:01:47.308Z,78.64
2023-01-11T09:04:24.216Z,77.66
2023-01-11T09:06:52.944Z,77.05
2023-01-11T09:09:19.688Z,76.29
2023-01-11T09:11:55.236Z,75.34
2023-01-11T09:14:22.696Z,74.43
2023-01-11T09:16:49.398Z,75.26
2023-01-11T09:19:16.016Z,75.95
2023-01-11T09:21:43.198Z,75.83
2023-01-11T09:24:09.890Z,75.41
2023-01-11T09:26:37.500Z,77.92
2023-01-11T09:29:05.061Z,78.70
2023-01-11T09:31:31.814Z,78.18
2023-01-11T09:33:58.593Z,79.14
2023-01-11T09:36:27.800Z,77.74
2023-01-11T09:38:57.424Z,78.80
2023-01-11T09:41:27.319Z,78.55
2023-01-11T09:44:03.929Z,78.89
2023-01-11T09:46:30.652Z,78.91
2023-01-11T09:48:59.551Z,79.12
2023-01-11T09:51:35.895Z,77.11
2023-01-11T09:54:06.007Z,76.47
2023-01-11T09:56:51.233Z,77.76
2023-01-11T09:59:44.204Z,75.81
2023-01-11T10:02:24.677Z,75.54
2023-01-11T10:05:31.957Z,76.34
2023-01-11T10:18:30.325Z,76.51
2023-01-11T10:18:30.457Z,75.00
2023-01-11T10:19:57.956Z,75.63
2023-01-11T10:22:32.538Z,76.87
2023-01-11T10:25:11.609Z,77.97
2023-01-11T10:27:40.401Z,78.67
2023-01-11T10:30:35.906Z,76.89
2023-01-11T10:33:18.723Z,77.21
2023-01-11T10:36:06.040Z,77.94
2023-01-11T10:39:01.376Z,78.37
2023-01-11T10:41:57.535Z,77.94
2023-01-11T10:44:35.775Z,77.38
2023-01-11T10:47:02.488Z,76.45
2023-01-11T10:49:49.751Z,77.00
2023-01-11T10:52:29.324Z,77.56
2023-01-11T10:54:57.482Z,76.63
2023-01-11T10:57:27.107Z,76.21
2023-01-11T11:00:16.949Z,76.67
2023-01-11T11:02:49.317Z,76.83
2023-01-11T11:05:27.874Z,77.09
2023-01-11T11:08:31.981Z,76.37
2023-01-11T11:11:05.824Z,76.61
2023-01-11T11:13:38.503Z,77.03
2023-01-11T11:16:23.277Z,76.96
2023-01-11T11:18:54.459Z,76.49
2023-01-11T11:21:28.506Z,77.46
2023-01-11T11:23:55.970Z,76.14
2023-01-11T11:26:23.246Z,76.11
2023-01-11T11:29:01.220Z,75.95
2023-01-11T11:31:28.526Z,77.05
2023-01-11T11:33:55.232Z,76.39
2023-01-11T11:36:21.938Z,77.08
2023-01-11T11:39:18.863Z,78.18
2023-01-11T11:42:07.065Z,78.01
2023-01-11T11:44:33.811Z,77.36
2023-01-11T11:47:05.419Z,78.17
2023-01-11T11:49:36.235Z,79.13
2023-01-11T11:52:23.709Z,78.88
2023-01-11T11:54:52.934Z,79.63
2023-01-11T11:57:19.515Z,78.96
2023-01-11T11:59:47.802Z,79.37
2023-01-11T12:02:26.483Z,78.59
2023-01-11T12:04:53.262Z,78.41
2023-01-11T12:07:21.135Z,78.16
2023-01-11T12:09:57.564Z,77.85
2023-01-11T12:12:27.369Z,77.89
2023-01-11T12:15:15.967Z,78.09
2023-01-11T12:17:42.683Z,77.59
2023-01-11T12:20:21.332Z,77.11
2023-01-11T12:22:48.615Z,76.68
2023-01-11T12:25:15.336Z,76.57
2023-01-11T12:28:01.363Z,76.34
2023-01-11T12:30:52.172Z,76.43
2023-01-11T12:33:44.407Z,75.76
2023-01-11T12:36:32.721Z,76.46
2023-01-11T12:39:17.968Z,77.10
2023-01-11T12:42:26.142Z,77.28
2023-01-11T12:45:04.762Z,77.62
2023-01-11T12:47:40.568Z,77.02
2023-01-11T12:50:25.022Z,78.95
2023-01-11T12:53:00.714Z,77.65
2023-01-11T12:55:58.060Z,77.57
2023-01-11T12:58:57.557Z,78.38
2023-01-11T13:01:39.304Z,78.49
2023-01-11T13:04:40.686Z,77.88
2023-01-11T13:07:21.066Z,78.27
2023-01-11T13:10:06.622Z,77.78
2023-01-11T13:12:49.372Z,78.46
2023-01-11T13:15:21.444Z,78.05
2023-01-11T13:17:51.815Z,77.74
2023-01-11T13:20:27.439Z,76.22
2023-01-11T13:23:26.041Z,76.43
2023-01-11T13:25:52.784Z,76.53
2023-01-11T13:28:23.890Z,77.38
2023-01-11T13:30:50.915Z,77.10
2023-01-11T13:33:20.733Z,76.35
2023-01-11T13:36:23.131Z,77.55
2023-01-11T13:38:56.584Z,76.37
2023-01-11T13:41:25.820Z,76.84
2023-01-11T13:44:06.811Z,76.32
2023-01-11T13:46:48.079Z,76.53
2023-01-11T13:49:18.456Z,76.30
2023-01-11T13:51:58.765Z,76.03
2023-01-11T13:54:50.409Z,77.19
2023-01-11T13:57:57.079Z,76.81
2023-01-11T14:00:38.708Z,75.87
2023-01-11T14:03:11.386Z,76.24
2023-01-11T14:06:03.109Z,76.28
2023-01-11T14:09:08.224Z,77.23
2023-01-11T14:11:44.537Z,77.13
2023-01-11T14:14:29.535Z,76.80
2023-01-11T14:17:02.409Z,76.20
2023-01-11T14:19:46.420Z,76.43
2023-01-11T14:22:20.576Z,75.90
2023-01-11T14:25:05.648Z,75.40
2023-01-11T14:28:09.775Z,76.04
2023-01-11T14:31:04.522Z,76.02
2023-01-11T14:33:37.176Z,76.74
2023-01-11T14:36:03.767Z,77.24
2023-01-11T14:39:06.338Z,76.14
2023-01-11T14:41:41.925Z,77.18
2023-01-11T14:44:18.000Z,76.80
2023-01-11T14:47:00.851Z,76.44
2023-01-11T14:49:51.792Z,76.75
2023-01-11T14:52:31.121Z,76.71
2023-01-11T14:55:07.000Z,76.98
2023-01-11T14:57:41.204Z,76.92
2023-01-11T15:00:19.837Z,77.02
2023-01-11T15:02:47.219Z,77.93
2023-01-11T15:05:44.982Z,77.72
2023-01-11T15:08:14.702Z,77.40
2023-01-11T15:10:55.804Z,78.54
2023-01-11T15:13:49.972Z,78.40
2023-01-11T15:16:38.020Z,77.38
2023-01-11T15:19:09.501Z,78.76
2023-01-11T15:21:41.020Z,78.83
2023-01-11T15:24:18.513Z,78.86
2023-01-11T15:26:48.498Z,78.70
2023-01-11T15:29:41.858Z,79.69
2023-01-11T15:32:33.198Z,79.06
2023-01-11T15:35:31.567Z,78.94
2023-01-11T15:38:07.493Z,80.01
2023-01-11T15:40:36.880Z,80.12
2023-01-11T15:43:12.569Z,80.40
2023-01-11T15:46:16.703Z,80.55
2023-01-11T15:48:59.797Z,80.63
2023-01-11T15:51:26.332Z,79.75
2023-01-11T15:54:01.293Z,79.59
2023-01-11T15:56:31.459Z,80.50
2023-01-11T15:59:19.914Z,80.25
2023-01-11T16:02:08.067Z,80.44
2023-01-11T16:05:06.269Z,79.44
2023-01-11T16:07:54.852Z,79.53
2023-01-11T16:10:59.174Z,78.89
2023-01-11T16:13:37.956Z,78.98
2023-01-11T16:16:26.877Z,80.54
2023-01-11T16:18:57.979Z,80.50
2023-01-11T16:21:31.765Z,81.07
2023-01-11T16:23:58.512Z,80.69
2023-01-11T16:26:25.230Z,81.05
2023-01-11T16:28:54.810Z,80.67
2023-01-11T16:31:21.542Z,81.11
2023-01-11T16:33:49.819Z,81.67
2023-01-11T16:36:21.292Z,82.32
2023-01-11T16:39:00.045Z,81.81
2023-01-11T16:41:28.588Z,82.04
2023-01-11T16:44:06.319Z,82.02
2023-01-11T16:47:03.998Z,82.75
2023-01-11T16:49:30.603Z,85.12
2023-01-11T16:52:00.432Z,84.58
2023-01-11T16:54:31.812Z,85.04
2023-01-11T16:56:59.455Z,84.33
2023-01-11T16:59:30.527Z,83.69
2023-01-11T17:01:59.101Z,84.33
2023-01-11T17:04:30.689Z,86.46
2023-01-11T17:06:58.100Z,86.81
2023-01-11T17:09:26.026Z,87.04
2023-01-11T17:11:52.909Z,87.21
2023-01-11T17:14:56.928Z,88.77
2023-01-11T17:17:23.625Z,87.50
2023-01-11T17:19:50.640Z,88.74
2023-01-11T17:22:22.528Z,87.85
2023-01-11T17:25:00.266Z,86.54
2023-01-11T17:27:35.736Z,85.86
2023-01-11T17:30:02.850Z,85.50
2023-01-11T17:32:37.162Z,86.37
2023-01-11T17:35:11.113Z,86.61
2023-01-11T17:37:37.518Z,85.57
2023-01-11T17:40:04.580Z,86.11
2023-01-11T17:42:49.787Z,85.75
2023-01-11T17:45:23.898Z,85.91
2023-01-11T17:47:51.824Z,85.71
2023-01-11T17:50:22.504Z,85.56
2023-01-11T17:52:54.687Z,86.00
2023-01-11T17:55:23.257Z,84.96
2023-01-11T17:58:08.556Z,85.51
2023-01-11T18:00:35.334Z,85.15
2023-01-11T18:03:10.628Z,84.61
2023-01-11T18:05:37.263Z,85.04
2023-01-11T18:08:09.647Z,84.17
2023-01-11T18:10:38.164Z,85.16
2023-01-11T18:13:04.788Z,84.88
2023-01-11T18:15:34.170Z,85.32
2023-01-11T18:18:01.053Z,87.17
2023-01-11T18:20:40.693Z,86.91
2023-01-11T18:23:18.779Z,85.72
2023-01-11T18:25:46.151Z,86.32
2023-01-11T18:28:20.919Z,85.58
2023-01-11T18:30:54.450Z,85.51
2023-01-11T18:33:23.398Z,86.15
2023-01-11T18:35:51.910Z,85.31
2023-01-11T18:38:20.044Z,84.96
2023-01-11T18:40:47.124Z,84.54
2023-01-11T18:43:13.844Z,84.61
2023-01-11T18:45:41.349Z,84.57
2023-01-11T18:48:12.072Z,84.59
2023-01-11T18:50:39.259Z,84.95
2023-01-11T18:53:05.958Z,84.24
2023-01-11T18:55:32.581Z,84.06
2023-01-11T18:57:59.257Z,84.28
2023-01-11T19:00:26.091Z,84.50
2023-01-11T19:02:52.704Z,84.60
2023-01-11T19:05:19.358Z,84.35
2023-01-11T19:07:46.096Z,83.67
2023-01-11T19:10:17.548Z,83.34
2023-01-11T19:12:44.807Z,83.17
2023-01-11T19:15:12.476Z,84.05
2023-01-11T19:17:39.363Z,83.64
2023-01-11T19:20:09.143Z,83.64
2023-01-11T19:22:37.013Z,83.71
2023-01-11T19:25:03.989Z,84.14
2023-01-11T19:27:30.672Z,83.66
2023-01-11T19:29:58.222Z,83.33
2023-01-11T19:32:25.841Z,83.38
2023-01-11T19:34:53.042Z,83.86
2023-01-11T19:37:19.727Z,82.86
2023-01-11T19:39:46.539Z,82.87
2023-01-11T19:42:13.210Z,83.87
2023-01-11T19:44:40.056Z,82.84
2023-01-11T19:47:12.564Z,83.32
2023-01-11T19:49:40.190Z,83.38
2023-01-11T19:52:13.269Z,82.77
2023-01-11T19:54:43.796Z,83.11
2023-01-11T19:57:15.524Z,82.73
2023-01-11T19:59:42.330Z,83.01
2023-01-11T20:02:13.596Z,83.39
2023-01-11T20:04:40.791Z,84.01
2023-01-11T20:07:07.989Z,83.97
2023-01-11T20:09:37.520Z,84.16
2023-01-11T20:12:08.370Z,83.80
2023-01-11T20:14:35.298Z,85.58
2023-01-11T20:17:02.184Z,84.71
2023-01-11T20:19:28.990Z,84.88
2023-01-11T20:21:56.572Z,84.54
2023-01-11T20:24:29.706Z,84.85
2023-01-11T20:26:57.597Z,85.22
2023-01-11T20:29:24.257Z,84.48
2023-01-11T20:31:51.015Z,85.19
2023-01-11T20:34:17.862Z,84.48
2023-01-11T20:36:44.649Z,85.78
2023-01-11T20:39:11.387Z,85.58
2023-01-11T20:41:47.033Z,86.57
2023-01-11T20:44:16.152Z,86.22
2023-01-11T20:46:43.062Z,85.75
2023-01-11T20:49:09.721Z,85.67
2023-01-11T20:51:36.573Z,84.94
2023-01-11T20:54:04.401Z,84.23
2023-01-11T20:56:31.145Z,84.29
2023-01-11T20:58:57.789Z,84.32
2023-01-11T21:01:27.418Z,84.54
2023-01-11T21:04:01.808Z,83.64
2023-01-11T21:06:28.792Z,83.84
2023-01-11T21:08:56.327Z,84.24
2023-01-11T21:11:23.108Z,84.06
2023-01-11T21:13:53.528Z,84.15
2023-01-11T21:16:20.540Z,83.95
2023-01-11T21:18:47.338Z,83.25
2023-01-11T21:21:17.844Z,83.46
2023-01-11T21:23:45.418Z,83.96
2023-01-11T21:26:12.539Z,82.90
2023-01-11T21:28:39.955Z,83.49
2023-01-11T21:31:07.173Z,84.05
2023-01-11T21:33:33.958Z,84.00
2023-01-11T21:36:04.648Z,85.19
2023-01-11T21:38:32.194Z,85.83
2023-01-11T21:41:09.188Z,85.38
2023-01-11T21:43:36.036Z,85.54
2023-01-11T21:46:03.156Z,85.72
2023-01-11T21:48:29.853Z,85.60
2023-01-11T21:50:56.667Z,84.76
2023-01-11T21:53:23.361Z,84.33
2023-01-11T21:55:50.052Z,83.74
2023-01-11T21:58:19.811Z,83.34
2023-01-11T22:00:46.575Z,84.48
2023-01-11T22:03:13.231Z,84.41
2023-01-11T22:05:39.966Z,84.84
2023-01-11T22:08:06.658Z,85.01
2023-01-11T22:10:33.805Z,85.36
2023-01-11T22:13:00.662Z,85.07
2023-01-11T22:15:27.300Z,84.95
2023-01-11T22:17:54.043Z,84.80
2023-01-11T22:20:20.676Z,85.16
2023-01-11T22:22:47.385Z,84.21
2023-01-11T22:25:14.039Z,84.33
2023-01-11T22:27:40.998Z,84.15
2023-01-11T22:30:08.443Z,84.95
2023-01-11T22:32:35.131Z,85.03
2023-01-11T22:35:01.799Z,85.17
2023-01-11T22:37:28.491Z,85.23
2023-01-11T22:39:55.111Z,85.91
2023-01-11T22:42:21.800Z,86.29
2023-01-11T22:44:48.643Z,86.31
2023-01-11T22:47:15.454Z,86.29
2023-01-11T22:49:42.065Z,86.35
2023-01-11T22:52:08.757Z,86.34
2023-01-11T22:54:35.562Z,86.38
2023-01-11T22:57:02.212Z,86.63
2023-01-11T22:59:28.936Z,87.16
2023-01-11T23:01:55.580Z,86.70
2023-01-11T23:04:22.341Z,87.57
2023-01-11T23:06:49.119Z,87.59
2023-01-11T23:09:16.869Z,86.80
2023-01-11T23:12:02.383Z,86.58
2023-01-11T23:14:30.219Z,87.21
2023-01-11T23:16:59.282Z,87.56
2023-01-11T23:19:25.908Z,87.60
2023-01-11T23:21:52.649Z,86.86
2023-01-11T23:24:19.249Z,86.78
2023-01-11T23:26:46.188Z,87.42
2023-01-11T23:29:13.102Z,87.12
2023-01-11T23:31:39.863Z,87.49
2023-01-11T23:34:09.503Z,87.40
2023-01-11T23:36:37.699Z,87.85
2023-01-11T23:39:05.577Z,86.93
2023-01-11T23:41:50.742Z,86.73
2023-01-11T23:44:17.614Z,86.88
2023-01-11T23:47:03.567Z,86.48
2023-01-11T23:49:30.828Z,87.01
2023-01-11T23:51:57.590Z,86.74
2023-01-11T23:54:29.279Z,86.22
2023-01-11T23:56:56.483Z,86.84
2023-01-11T23:59:23.095Z,86.84
